Terre Haute, Indiana
Current Conditions -  °F | °C
As of 2:53 AM on Thursday 29 Jan 2015 (Local Time) from KHUF Reporting Station
Broken Clouds Broken Clouds  
Wind Chill: 31°   Ceiling: 9000
Heat Index: 39°   Visibility: 10mi
Dew Point: 27°   Wind: 14mph
Humidity: 62%   Direction: 170°S
Pressure: 29.87"   Gusts: NA
Location:  39.47°N, 87.41°W
Report Text: KHUF 290753Z 17012KT 10SM BKN090 BKN110 04/M03 A2987 RMK AO2 RAB22E38 SLP117 P0000 T00391028
Loading
Personal Weather Stations






























Interactive Weather Map New forecast layout! Learn more

10-Day Weather Forecast

Advertisements
Track Severe Weather on mobile